Weather History for Wrangell, AK

Change the Weather History Date:

Saturday, March 23, 2013

  Actual Average Record
Temperature  
Mean Temperature 35 °F -  
Max Temperature 42 °F 44 °F 53 °F (1990)
Min Temperature 28 °F 33 °F 19 °F (1964)
Degree Days  
Heating Degree Days 30    
Moisture  
Dew Point 25 °F    
Average Humidity 64    
Maximum Humidity 80    
Minimum Humidity 45    
Precipitation  
Precipitation 0.00 in - - ()
Sea Level Pressure  
Sea Level Pressure 30.27 in    
Wind  
Wind Speed 7 mph (ESE)    
Max Wind Speed 12 mph    
Max Gust Speed 18 mph    
Visibility 10 miles    
Events      
Averages and records for this station are not official NWS values.
T = Trace of Precipitation, MM = Missing Value Source: NWS Daily Summary

Daily Weather History Graph

Daily Weather History Graph

Search for Another Location

Airport:

Trip Planner

Search our weather history database for the weather conditions in past years. The results will help you decide how hot, cold, wet, or windy it might be!

Date:

Astronomy

Mar. 23, 2013 Rise Set
Actual Time 6:42 AM AKDT 7:10 PM AKDT
Civil Twilight 6:04 AM AKDT 7:48 PM AKDT
Nautical Twilight 5:19 AM AKDT 8:33 PM AKDT
Astronomical Twilight 4:30 AM AKDT 9:22 PM AKDT
Moon 3:11 PM AKDT 4:59 AM AKDT
Length of Visible Light 13h 43m
Length of Day
12h 28m
Waxing Gibbous, 86% of the Moon is Illuminated
Mar 23
Waxing Gibbous
Mar 27
Full
Apr 2
Last Quarter
Apr 10
New
Apr 18
First Quarter

Hourly Weather History & Observations

Time (AKDT) Temp. Windchill Dew Point Humidity Pressure Visibility Wind Dir Wind Speed Gust Speed Precip Events Conditions
12:16 AM 32.0 °F 24.8 °F 24.8 °F 75% 30.32 in 10.0 mi ESE 8.1 mph - N/A   Clear
12:36 AM 32.0 °F 24.8 °F 24.8 °F 75% 30.32 in 10.0 mi SE 8.1 mph - N/A   Clear
12:56 AM 30.2 °F 23.4 °F 23.0 °F 75% 30.32 in 10.0 mi SE 6.9 mph - N/A   Clear
1:16 AM 30.2 °F 24.3 °F 23.0 °F 75% 30.32 in 10.0 mi SSE 5.8 mph - N/A   Clear
1:36 AM 30.2 °F 24.3 °F 24.8 °F 80% 30.32 in 10.0 mi SE 5.8 mph - N/A   Clear
1:56 AM 30.2 °F 25.4 °F 24.8 °F 80% 30.32 in 10.0 mi SSE 4.6 mph - N/A   Clear
2:16 AM 30.2 °F 23.4 °F 24.8 °F 80% 30.31 in 10.0 mi SE 6.9 mph - N/A   Partly Cloudy
2:36 AM 32.0 °F 24.2 °F 24.8 °F 75% 30.31 in 10.0 mi ESE 9.2 mph - N/A   Partly Cloudy
2:56 AM 32.0 °F 23.6 °F 24.8 °F 75% 30.31 in 10.0 mi ESE 10.4 mph - N/A   Clear
3:16 AM 30.2 °F 21.9 °F 24.8 °F 80% 30.31 in 10.0 mi ESE 9.2 mph - N/A   Clear
3:36 AM 30.2 °F 21.9 °F 24.8 °F 80% 30.30 in 10.0 mi ESE 9.2 mph - N/A   Clear
3:56 AM 30.2 °F 22.6 °F 24.8 °F 80% 30.31 in 10.0 mi East 8.1 mph - N/A   Partly Cloudy
4:16 AM 30.2 °F 21.9 °F 24.8 °F 80% 30.31 in 10.0 mi East 9.2 mph - N/A   Partly Cloudy
4:36 AM 30.2 °F 21.9 °F 24.8 °F 80% 30.31 in 10.0 mi ESE 9.2 mph - N/A   Clear
4:56 AM 30.2 °F 22.6 °F 24.8 °F 80% 30.31 in 10.0 mi East 8.1 mph - N/A   Clear
5:16 AM 30.2 °F 20.8 °F 23.0 °F 75% 30.31 in 10.0 mi ESE 11.5 mph - N/A   Partly Cloudy
5:36 AM 30.2 °F 22.6 °F 21.2 °F 69% 30.31 in 10.0 mi SE 8.1 mph - N/A   Partly Cloudy
5:56 AM 28.4 °F 21.2 °F 23.0 °F 80% 30.31 in 10.0 mi SE 6.9 mph - N/A   Partly Cloudy
6:16 AM 30.2 °F 23.4 °F 23.0 °F 75% 30.31 in 10.0 mi SE 6.9 mph - N/A   Partly Cloudy
6:36 AM 28.4 °F 23.3 °F 21.2 °F 74% 30.31 in 10.0 mi SSE 4.6 mph - N/A   Partly Cloudy
6:56 AM 30.2 °F 26.7 °F 23.0 °F 75% 30.31 in 10.0 mi SSW 3.5 mph - N/A   Mostly Cloudy
7:16 AM 30.2 °F - 24.8 °F 80% 30.31 in 10.0 mi Calm Calm - N/A   Mostly Cloudy
7:36 AM 32.0 °F 26.4 °F 24.8 °F 75% 30.31 in 10.0 mi East 5.8 mph - N/A   Mostly Cloudy
7:56 AM 32.0 °F 23.6 °F 24.8 °F 75% 30.30 in 10.0 mi East 10.4 mph - N/A   Mostly Cloudy
8:16 AM 32.0 °F 24.2 °F 24.8 °F 75% 30.30 in 10.0 mi ESE 9.2 mph - N/A   Mostly Cloudy
8:36 AM 33.8 °F 27.7 °F 24.8 °F 70% 30.30 in 10.0 mi East 6.9 mph - N/A   Mostly Cloudy
8:56 AM 33.8 °F 27.0 °F 24.8 °F 70% 30.30 in 10.0 mi ENE 8.1 mph - N/A   Scattered Clouds
9:16 AM 33.8 °F 27.7 °F 24.8 °F 70% 30.30 in 10.0 mi ENE 6.9 mph - N/A   Scattered Clouds
9:36 AM 33.8 °F 28.6 °F 26.6 °F 75% 30.30 in 10.0 mi ENE 5.8 mph - N/A   Scattered Clouds
9:56 AM 33.8 °F 29.6 °F 24.8 °F 70% 30.30 in 10.0 mi NNW 4.6 mph - N/A   Scattered Clouds
10:16 AM 33.8 °F - 23.0 °F 65% 30.30 in 10.0 mi Calm Calm - N/A   Scattered Clouds
10:36 AM 35.6 °F 27.5 °F 26.6 °F 70% 30.29 in 10.0 mi ENE 11.5 mph - N/A   Scattered Clouds
10:56 AM 37.4 °F 29.8 °F 26.6 °F 65% 30.29 in 10.0 mi East 11.5 mph - N/A   Scattered Clouds
11:16 AM 37.4 °F 31.4 °F 26.6 °F 65% 30.29 in 10.0 mi SE 8.1 mph - N/A   Scattered Clouds
11:36 AM 39.2 °F 33.0 °F 23.0 °F 52% 30.29 in 10.0 mi ESE 9.2 mph - N/A   Scattered Clouds
11:56 AM 39.2 °F 32.5 °F 24.8 °F 56% 30.28 in 10.0 mi East 10.4 mph 18.4 mph N/A   Partly Cloudy
12:16 PM 39.2 °F 32.5 °F 24.8 °F 56% 30.28 in 10.0 mi ESE 10.4 mph - N/A   Partly Cloudy
12:36 PM 41.0 °F 34.3 °F 24.8 °F 53% 30.28 in 10.0 mi ESE 11.5 mph 18.4 mph N/A   Partly Cloudy
12:56 PM 41.0 °F 34.7 °F 24.8 °F 53% 30.27 in 10.0 mi ESE 10.4 mph 17.3 mph N/A   Partly Cloudy
1:16 PM 41.0 °F 35.2 °F 24.8 °F 53% 30.27 in 10.0 mi ESE 9.2 mph - N/A   Partly Cloudy
1:36 PM 39.2 °F 32.5 °F 23.0 °F 52% 30.27 in 10.0 mi ESE 10.4 mph - N/A   Scattered Clouds
1:56 PM 41.0 °F 35.2 °F 24.8 °F 53% 30.26 in 10.0 mi ESE 9.2 mph - N/A   Scattered Clouds
2:16 PM 41.0 °F 34.3 °F 24.8 °F 53% 30.26 in 10.0 mi ESE 11.5 mph - N/A   Scattered Clouds
2:36 PM 41.0 °F 36.4 °F 24.8 °F 53% 30.26 in 10.0 mi ESE 6.9 mph - N/A   Scattered Clouds
2:56 PM 42.8 °F 38.0 °F 23.0 °F 46% 30.25 in 10.0 mi SE 8.1 mph - N/A   Mostly Cloudy
3:16 PM 42.8 °F 38.6 °F 23.0 °F 46% 30.25 in 10.0 mi ESE 6.9 mph - N/A   Mostly Cloudy
3:36 PM 42.8 °F 37.0 °F 24.8 °F 49% 30.24 in 10.0 mi SE 10.4 mph - N/A   Mostly Cloudy
3:56 PM 42.8 °F 37.5 °F 24.8 °F 49% 30.24 in 10.0 mi ESE 9.2 mph - N/A   Mostly Cloudy
4:16 PM 42.8 °F 38.0 °F 24.8 °F 49% 30.24 in 10.0 mi ESE 8.1 mph - N/A   Mostly Cloudy
4:36 PM 42.8 °F 38.6 °F 24.8 °F 49% 30.23 in 10.0 mi SE 6.9 mph - N/A   Mostly Cloudy
4:56 PM 42.8 °F 38.6 °F 24.8 °F 49% 30.23 in 10.0 mi SE 6.9 mph - N/A   Overcast
5:16 PM 42.8 °F 38.0 °F 24.8 °F 49% 30.22 in 10.0 mi SE 8.1 mph - N/A   Overcast
5:36 PM 41.0 °F 35.8 °F 23.0 °F 49% 30.22 in 10.0 mi SE 8.1 mph - N/A   Overcast
5:56 PM 41.0 °F 35.8 °F 21.2 °F 45% 30.21 in 10.0 mi SE 8.1 mph - N/A   Clear
6:16 PM 41.0 °F 35.8 °F 24.8 °F 53% 30.21 in 10.0 mi ESE 8.1 mph - N/A   Clear
6:36 PM 41.0 °F 37.1 °F 24.8 °F 53% 30.21 in 10.0 mi SE 5.8 mph - N/A   Clear
6:56 PM 39.2 °F 33.6 °F 26.6 °F 61% 30.21 in 10.0 mi ESE 8.1 mph - N/A   Clear
7:16 PM 39.2 °F 35.0 °F 24.8 °F 56% 30.21 in 10.0 mi ESE 5.8 mph - N/A   Clear
7:36 PM 39.2 °F 35.9 °F 24.8 °F 56% 30.21 in 10.0 mi ESE 4.6 mph - N/A   Clear
7:56 PM 39.2 °F 35.0 °F 24.8 °F 56% 30.21 in 10.0 mi East 5.8 mph - N/A   Overcast
8:16 PM 39.2 °F 35.0 °F 24.8 °F 56% 30.21 in 10.0 mi ENE 5.8 mph - N/A   Overcast
8:36 PM 39.2 °F 33.6 °F 26.6 °F 61% 30.21 in 10.0 mi ENE 8.1 mph - N/A   Overcast
8:56 PM 39.2 °F 34.2 °F 26.6 °F 61% 30.20 in 10.0 mi ENE 6.9 mph - N/A   Overcast
9:16 PM 39.2 °F 37.0 °F 26.6 °F 61% 30.21 in 10.0 mi East 3.5 mph - N/A   Overcast
9:36 PM 39.2 °F 35.9 °F 26.6 °F 61% 30.20 in 10.0 mi ENE 4.6 mph - N/A   Overcast
9:56 PM 39.2 °F 34.2 °F 26.6 °F 61% 30.20 in 10.0 mi ENE 6.9 mph - N/A   Overcast
10:16 PM 39.2 °F 35.9 °F 24.8 °F 56% 30.20 in 10.0 mi ENE 4.6 mph - N/A   Overcast
10:36 PM 39.2 °F 37.0 °F 24.8 °F 56% 30.20 in 10.0 mi ESE 3.5 mph - N/A   Overcast
10:56 PM 37.4 °F 32.1 °F 26.6 °F 65% 30.19 in 10.0 mi East 6.9 mph - N/A   Overcast
11:16 PM 39.2 °F 34.2 °F 26.6 °F 61% 30.18 in 10.0 mi East 6.9 mph - N/A   Overcast
11:36 PM 39.2 °F - 26.6 °F 61% 30.18 in 10.0 mi Calm Calm - N/A   Overcast
11:56 PM 37.4 °F - 24.8 °F 60% 30.18 in 10.0 mi Calm Calm - N/A   Overcast